Time;durP1;ratioP1;P1;durP2;ratioP2;P2;SDS_P1;SDS_P2;PMS_P1;PMS_P2;Temp;Humidity;BMP_temperature;BMP_pressure;BME280_temperature;BME280_humidity;BME280_pressure;Samples;Min_cycle;Max_cycle;Signal;HPM_P1;HPM_P2
2021/04/24 00:02:07;;;;;;;;;;;;;;;6.24;66.64;100112.84;4913955;29;20233;-84
2021/04/24 00:04:32;;;;;;;;;;;;;;;5.92;67.49;100113.53;4910636;29;20285;-84
2021/04/24 00:06:57;;;;;;;;;;;;;;;6.21;67.82;100113.69;4922750;28;19925;-85
2021/04/24 00:09:23;;;;;;;;;;;;;;;6.46;65.59;100108.66;4917684;29;19926;-85
2021/04/24 00:11:48;;;;;;;;;;;;;;;6.42;66.46;100102.66;4907116;28;19922;-85
2021/04/24 00:14:14;;;;;;;;;;;;;;;6.63;66.39;100104.41;4917847;29;19923;-85
2021/04/24 00:16:39;;;;;;;;;;;;;;;6.56;65.54;100097.56;4917064;28;19986;-85
2021/04/24 00:19:05;;;;;;;;;;;;;;;6.58;65.13;100106.09;4910156;29;19923;-85
2021/04/24 00:21:30;;;;;;;;;;;;;;;6.49;64.68;100101.81;4916448;28;19923;-85
2021/04/24 00:23:55;;;;;;;;;;;;;;;6.58;67.13;100108.66;4917428;29;19922;-85
2021/04/24 00:26:21;;;;;;;;;;;;;;;6.66;65.24;100103.53;4915936;28;19915;-85
2021/04/24 00:28:46;;;;;;;;;;;;;;;6.12;66.77;100103.41;4916623;29;20348;-83
2021/04/24 00:31:12;;;;;;;;;;;;;;;6.54;66.27;100094.16;4903731;28;20287;-83
2021/04/24 00:33:37;;;;;;;;;;;;;;;6.49;66.42;100093.28;4921091;29;20293;-83
2021/04/24 00:36:03;;;;;;;;;;;;;;;6.40;65.48;100100.94;4910702;29;19923;-83
2021/04/24 00:38:28;;;;;;;;;;;;;;;6.38;66.92;100100.09;4924997;29;19927;-83
2021/04/24 00:40:55;;;;;;;;;;;;;;;6.54;66.09;100091.59;4924426;29;20279;-84
2021/04/24 00:43:21;;;;;;;;;;;;;;;6.71;65.71;100094.19;4920427;29;19921;-84
2021/04/24 00:45:46;;;;;;;;;;;;;;;6.69;65.06;100095.91;4918450;29;19923;-84
2021/04/24 00:48:12;;;;;;;;;;;;;;;6.59;65.22;100099.28;4925824;29;19949;-83
2021/04/24 00:50:38;;;;;;;;;;;;;;;6.46;65.66;100089.03;4928555;29;19922;-84
2021/04/24 00:53:04;;;;;;;;;;;;;;;6.37;65.71;100094.13;4928347;29;19982;-84
2021/04/24 00:55:30;;;;;;;;;;;;;;;6.25;66.58;100097.50;4915549;29;19925;-83
2021/04/24 00:57:55;;;;;;;;;;;;;;;6.21;66.53;100098.34;4912789;29;20407;-84
2021/04/24 01:00:24;;;;;;;;;;;;;;;6.13;68.41;100097.44;4911826;29;19966;-82
2021/04/24 01:02:50;;;;;;;;;;;;;;;6.23;66.66;100088.97;4930328;29;19915;-84
2021/04/24 01:05:18;;;;;;;;;;;;;;;6.20;66.85;100096.63;4917605;28;20474;-83
2021/04/24 01:07:44;;;;;;;;;;;;;;;6.13;67.08;100092.31;4908062;29;19922;-83
2021/04/24 01:10:11;;;;;;;;;;;;;;;6.07;66.93;100094.88;4927232;28;19926;-83
2021/04/24 01:12:36;;;;;;;;;;;;;;;6.03;67.46;100090.59;4927802;29;19926;-83
2021/04/24 01:15:02;;;;;;;;;;;;;;;6.00;67.34;100090.59;4925680;28;19922;-83
2021/04/24 01:17:27;;;;;;;;;;;;;;;5.96;67.67;100096.53;4916834;29;19990;-84
2021/04/24 01:19:52;;;;;;;;;;;;;;;5.95;68.55;100099.94;4920619;28;19919;-84
2021/04/24 01:22:18;;;;;;;;;;;;;;;6.18;67.87;100093.22;4917807;29;19957;-83
2021/04/24 01:24:43;;;;;;;;;;;;;;;6.19;67.30;100099.19;4915466;28;20063;-83
2021/04/24 01:27:09;;;;;;;;;;;;;;;6.06;67.83;100094.00;4920776;29;20740;-83
2021/04/24 01:29:35;;;;;;;;;;;;;;;5.91;68.27;100087.94;4928943;29;19930;-83
2021/04/24 01:32:00;;;;;;;;;;;;;;;5.94;67.86;100082.84;4909164;29;19923;-82
2021/04/24 01:34:26;;;;;;;;;;;;;;;5.76;68.32;100079.34;4912248;29;19986;-83
2021/04/24 01:36:53;;;;;;;;;;;;;;;5.81;68.33;100079.38;4917164;29;19927;-83
2021/04/24 01:39:19;;;;;;;;;;;;;;;5.85;68.20;100076.84;4918155;29;19918;-82
2021/04/24 01:41:44;;;;;;;;;;;;;;;5.79;68.21;100079.41;4923003;29;19925;-83
2021/04/24 01:44:09;;;;;;;;;;;;;;;5.80;70.70;100078.53;4922009;29;20005;-83
2021/04/24 01:46:35;;;;;;;;;;;;;;;5.66;70.39;100082.72;4917837;29;19965;-81
2021/04/24 01:49:00;;;;;;;;;;;;;;;5.63;70.72;100077.59;4917894;29;19990;-82
2021/04/24 01:51:26;;;;;;;;;;;;;;;5.70;70.30;100084.44;4918676;29;20009;-82
2021/04/24 01:53:52;;;;;;;;;;;;;;;5.66;69.62;100082.72;4923098;29;19925;-83
2021/04/24 01:56:17;;;;;;;;;;;;;;;5.59;69.59;100081.00;4918745;29;20426;-83
2021/04/24 01:58:43;;;;;;;;;;;;;;;5.45;70.06;100078.31;4914613;29;19938;-83
2021/04/24 02:01:11;;;;;;;;;;;;;;;5.38;70.57;100080.03;4908790;29;20441;-83
2021/04/24 02:03:36;;;;;;;;;;;;;;;5.31;71.75;100069.72;4911369;29;19930;-83
2021/04/24 02:06:02;;;;;;;;;;;;;;;5.16;71.94;100067.94;4923480;28;19919;-83
2021/04/24 02:08:32;;;;;;;;;;;;;;;5.13;72.12;100066.22;4910727;28;19930;-83
2021/04/24 02:10:57;;;;;;;;;;;;;;;4.94;73.09;100064.38;4913074;29;20424;-83
2021/04/24 02:13:27;;;;;;;;;;;;;;;4.95;74.50;100061.84;4915797;28;19933;-83
2021/04/24 02:15:53;;;;;;;;;;;;;;;4.31;77.70;100068.88;4917531;29;19918;-82
2021/04/24 02:18:19;;;;;;;;;;;;;;;3.80;82.73;100068.28;4919666;28;19919;-83
2021/04/24 02:20:45;;;;;;;;;;;;;;;4.21;82.24;100064.53;4904974;29;19914;-83
2021/04/24 02:23:11;;;;;;;;;;;;;;;3.96;82.17;100065.09;4908247;28;19922;-82
2021/04/24 02:25:37;;;;;;;;;;;;;;;4.30;81.86;100069.72;4922072;29;19926;-82
2021/04/24 02:28:02;;;;;;;;;;;;;;;4.39;80.84;100069.81;4922065;29;19923;-83
2021/04/24 02:30:28;;;;;;;;;;;;;;;4.13;82.16;100070.41;4924245;29;20291;-83
2021/04/24 02:32:53;;;;;;;;;;;;;;;4.21;82.39;100069.63;4908233;29;19914;-83
2021/04/24 02:35:20;;;;;;;;;;;;;;;4.38;81.70;100068.13;4910984;29;19946;-83
2021/04/24 02:37:46;;;;;;;;;;;;;;;4.42;80.79;100071.53;4916444;29;20519;-84
2021/04/24 02:40:15;;;;;;;;;;;;;;;4.26;80.35;100073.06;4923128;28;19934;-83
2021/04/24 02:42:40;;;;;;;;;;;;;;;4.30;81.89;100074.81;4908966;29;19947;-84
2021/04/24 02:45:07;;;;;;;;;;;;;;;4.41;80.88;100068.16;4917484;29;19919;-84
2021/04/24 02:47:33;;;;;;;;;;;;;;;4.38;80.73;100078.31;4923098;29;19915;-83
2021/04/24 02:49:59;;;;;;;;;;;;;;;4.54;79.78;100079.34;4923701;28;19951;-83
2021/04/24 02:52:25;;;;;;;;;;;;;;;4.59;78.92;100086.19;4913797;29;19926;-83
2021/04/24 02:54:50;;;;;;;;;;;;;;;4.44;78.89;100087.72;4922744;28;20587;-83
2021/04/24 02:57:16;;;;;;;;;;;;;;;4.59;78.59;100091.28;4920871;29;19927;-83
2021/04/24 02:59:41;;;;;;;;;;;;;;;4.68;78.63;100097.31;4909243;28;20439;-83
2021/04/24 03:02:06;;;;;;;;;;;;;;;4.69;77.66;100093.91;4907811;29;19947;-83
2021/04/24 03:04:32;;;;;;;;;;;;;;;4.72;78.07;100088.84;4911364;28;19919;-83
2021/04/24 03:06:57;;;;;;;;;;;;;;;4.75;77.19;100084.63;4922613;29;20489;-83
2021/04/24 03:09:23;;;;;;;;;;;;;;;4.61;77.75;100091.31;4920131;29;19923;-83
2021/04/24 03:11:48;;;;;;;;;;;;;;;4.65;77.04;100097.28;4916398;28;19919;-83
2021/04/24 03:14:13;;;;;;;;;;;;;;;4.59;78.34;100093.84;4920327;29;19919;-83
2021/04/24 03:16:39;;;;;;;;;;;;;;;4.64;76.92;100095.59;4906186;29;19962;-83
2021/04/24 03:19:05;;;;;;;;;;;;;;;4.52;77.63;100097.16;4915527;29;20284;-83
2021/04/24 03:21:30;;;;;;;;;;;;;;;4.63;78.13;100088.75;4920281;29;19923;-82
2021/04/24 03:23:56;;;;;;;;;;;;;;;4.42;77.42;100090.25;4916308;29;19934;-83
2021/04/24 03:26:22;;;;;;;;;;;;;;;4.54;77.26;100084.44;4916551;28;19930;-83
2021/04/24 03:28:47;;;;;;;;;;;;;;;4.48;77.60;100090.31;4911322;29;19931;-83
2021/04/24 03:31:12;;;;;;;;;;;;;;;4.44;77.92;100085.16;4913336;28;19966;-83
2021/04/24 03:33:38;;;;;;;;;;;;;;;4.28;78.34;100081.59;4904159;29;19929;-83
2021/04/24 03:36:05;;;;;;;;;;;;;;;4.26;78.20;100073.06;4913779;28;19927;-84
2021/04/24 03:38:30;;;;;;;;;;;;;;;4.22;78.71;100072.22;4920303;29;19970;-82
2021/04/24 03:40:55;;;;;;;;;;;;;;;4.10;79.10;100083.09;4906340;28;20135;-84
2021/04/24 03:43:21;;;;;;;;;;;;;;;4.15;78.92;100081.47;4904505;29;19927;-82
2021/04/24 03:45:46;;;;;;;;;;;;;;;4.03;80.03;100083.88;4906788;28;19937;-83
2021/04/24 03:48:12;;;;;;;;;;;;;;;4.09;79.96;100081.41;4915579;29;19918;-83
2021/04/24 03:50:37;;;;;;;;;;;;;;;3.96;80.35;100084.63;4904678;28;19980;-83
2021/04/24 03:53:02;;;;;;;;;;;;;;;3.91;81.05;100081.19;4902452;29;20352;-84
2021/04/24 03:55:28;;;;;;;;;;;;;;;4.04;81.24;100087.25;4902520;28;20000;-83
2021/04/24 03:57:56;;;;;;;;;;;;;;;4.09;80.42;100085.66;4914116;29;20025;-84
2021/04/24 04:00:26;;;;;;;;;;;;;;;4.16;80.64;100085.72;4913607;28;19942;-83
2021/04/24 04:02:59;;;;;;;;;;;;;;;4.16;80.27;100088.28;4918737;29;19927;-83
2021/04/24 04:05:28;;;;;;;;;;;;;;;4.14;80.09;100084.84;4912102;29;19934;-82
2021/04/24 04:07:54;;;;;;;;;;;;;;;3.91;80.63;100092.22;4905584;28;20411;-83
2021/04/24 04:10:19;;;;;;;;;;;;;;;3.89;80.59;100096.44;4919622;29;19922;-82
2021/04/24 04:12:45;;;;;;;;;;;;;;;3.49;83.07;100098.47;4918656;29;19922;-83
2021/04/24 04:15:11;;;;;;;;;;;;;;;3.25;86.17;100101.50;4918808;29;19930;-83
2021/04/24 04:17:38;;;;;;;;;;;;;;;2.89;89.38;100101.75;4908119;28;19950;-84
2021/04/24 04:20:05;;;;;;;;;;;;;;;2.84;91.06;100096.59;4922552;29;19952;-82
2021/04/24 04:22:30;;;;;;;;;;;;;;;2.85;91.84;100098.31;4921309;28;19947;-83
2021/04/24 04:24:56;;;;;;;;;;;;;;;2.71;93.04;100104.84;4917737;28;19914;-83
2021/04/24 04:27:21;;;;;;;;;;;;;;;2.69;93.33;100097.22;4919591;28;19918;-82
2021/04/24 04:29:47;;;;;;;;;;;;;;;2.80;93.90;100099.91;4924958;29;20001;-83
2021/04/24 04:32:12;;;;;;;;;;;;;;;2.35;94.32;100095.75;4917473;28;19951;-82
2021/04/24 04:34:37;;;;;;;;;;;;;;;2.43;96.71;100095.88;4906047;29;19926;-83
2021/04/24 04:37:03;;;;;;;;;;;;;;;2.85;94.75;100100.88;4939354;28;19954;-83
2021/04/24 04:39:29;;;;;;;;;;;;;;;3.11;93.19;100103.81;4913132;28;20281;-82
2021/04/24 04:41:54;;;;;;;;;;;;;;;2.83;93.08;100107.63;4916546;28;19933;-82
2021/04/24 04:44:19;;;;;;;;;;;;;;;2.72;93.58;100115.06;4926292;29;19949;-83
2021/04/24 04:46:45;;;;;;;;;;;;;;;3.44;92.36;100104.31;4909543;28;19915;-82
2021/04/24 04:49:10;;;;;;;;;;;;;;;3.49;91.19;100107.78;4910106;28;19915;-82
2021/04/24 04:51:35;;;;;;;;;;;;;;;3.32;92.05;100105.00;4918355;29;19925;-83
2021/04/24 04:54:01;;;;;;;;;;;;;;;3.13;93.61;100104.72;4923824;29;19990;-83
2021/04/24 04:56:26;;;;;;;;;;;;;;;3.07;95.02;100104.59;4942480;28;19927;-82
2021/04/24 04:58:52;;;;;;;;;;;;;;;3.24;95.12;100102.34;4908277;29;19926;-83
2021/04/24 05:01:18;;;;;;;;;;;;;;;3.21;94.84;100103.97;4923288;28;20739;-82
2021/04/24 05:03:44;;;;;;;;;;;;;;;3.39;94.35;100095.75;4906220;29;19989;-82
2021/04/24 05:06:09;;;;;;;;;;;;;;;3.35;94.80;100099.94;4917202;28;19918;-83
2021/04/24 05:08:38;;;;;;;;;;;;;;;3.44;94.85;100104.31;4926635;29;19918;-82
2021/04/24 05:11:03;;;;;;;;;;;;;;;3.61;94.13;100100.31;4927210;29;19973;-83
2021/04/24 05:13:29;;;;;;;;;;;;;;;3.63;93.77;100101.22;4916934;29;19938;-83
2021/04/24 05:15:54;;;;;;;;;;;;;;;3.72;93.81;100105.56;4918861;28;19915;-84
2021/04/24 05:18:21;;;;;;;;;;;;;;;3.67;94.76;100104.63;4911841;29;19974;-84
2021/04/24 05:20:46;;;;;;;;;;;;;;;3.64;96.30;100100.34;4912850;28;19922;-83
2021/04/24 05:23:12;;;;;;;;;;;;;;;3.61;97.01;100095.22;4926810;29;20250;-84
2021/04/24 05:25:37;;;;;;;;;;;;;;;3.70;97.19;100102.16;4907120;28;20415;-84
2021/04/24 05:28:02;;;;;;;;;;;;;;;3.68;97.39;100098.72;4911619;29;20001;-84
2021/04/24 05:30:28;;;;;;;;;;;;;;;3.94;97.54;100101.59;4917750;29;20424;-83
2021/04/24 05:32:54;;;;;;;;;;;;;;;3.65;98.51;100107.19;4907642;29;19918;-84
2021/04/24 05:35:20;;;;;;;;;;;;;;;4.08;98.09;100110.28;4906337;28;19919;-84
2021/04/24 05:37:45;;;;;;;;;;;;;;;3.98;98.08;100099.09;4926087;29;19989;-84
2021/04/24 05:40:11;;;;;;;;;;;;;;;4.31;97.12;100107.13;4920716;28;20021;-84
2021/04/24 05:42:36;;;;;;;;;;;;;;;4.09;99.75;100106.03;4921131;29;20288;-84
2021/04/24 05:45:10;;;;;;;;;;;;;;;4.71;96.17;100102.44;4919736;28;19914;-83
2021/04/24 05:47:36;;;;;;;;;;;;;;;4.58;95.84;100111.66;4919043;29;19988;-83
2021/04/24 05:50:01;;;;;;;;;;;;;;;4.53;96.47;100103.13;4909192;29;20504;-83
2021/04/24 05:52:26;;;;;;;;;;;;;;;4.75;95.74;100107.59;4919427;29;20336;-82
2021/04/24 05:54:52;;;;;;;;;;;;;;;4.86;94.72;100105.16;4918320;28;19919;-82
2021/04/24 05:57:17;;;;;;;;;;;;;;;4.68;95.39;100110.09;4909666;29;20009;-82
2021/04/24 05:59:43;;;;;;;;;;;;;;;4.77;95.72;100102.53;4908719;29;20373;-81
2021/04/24 06:02:08;;;;;;;;;;;;;;;4.82;96.00;100095.75;4922318;29;19915;-82
2021/04/24 06:04:33;;;;;;;;;;;;;;;4.84;96.12;100106.84;4917407;28;19922;-83
2021/04/24 06:07:00;;;;;;;;;;;;;;;5.39;94.70;100106.41;4907912;29;19922;-82
2021/04/24 06:09:26;;;;;;;;;;;;;;;4.87;94.33;100106.84;4918075;28;19914;-83
2021/04/24 06:11:51;;;;;;;;;;;;;;;4.93;94.75;100112.00;4923096;29;19910;-83
2021/04/24 06:14:16;;;;;;;;;;;;;;;5.02;95.26;100111.25;4910171;28;19915;-83
2021/04/24 06:16:42;;;;;;;;;;;;;;;5.43;94.26;100103.88;4911277;29;19919;-82
2021/04/24 06:19:07;;;;;;;;;;;;;;;6.02;92.95;100117.88;4919401;28;19919;-83
2021/04/24 06:21:32;;;;;;;;;;;;;;;5.66;92.03;100115.94;4915614;28;19923;-83
2021/04/24 06:23:58;;;;;;;;;;;;;;;5.11;96.38;100116.44;4920651;28;20399;-82
2021/04/24 06:26:23;;;;;;;;;;;;;;;5.29;96.41;100117.38;4909818;29;20022;-83
2021/04/24 06:28:49;;;;;;;;;;;;;;;5.33;94.77;100114.88;4909580;29;19974;-82
2021/04/24 06:31:14;;;;;;;;;;;;;;;5.38;93.15;100108.13;4915458;29;19918;-82
2021/04/24 06:33:39;;;;;;;;;;;;;;;4.83;98.63;100102.56;4926378;28;19918;-82
2021/04/24 06:36:05;;;;;;;;;;;;;;;5.70;95.80;100114.25;4916474;29;19923;-82
2021/04/24 06:38:30;;;;;;;;;;;;;;;5.36;95.54;100116.59;4921150;29;20444;-83
2021/04/24 06:40:56;;;;;;;;;;;;;;;5.60;95.87;100109.09;4945277;28;20018;-82
2021/04/24 06:43:21;;;;;;;;;;;;;;;5.33;98.85;100116.56;4909397;28;19915;-83
2021/04/24 06:45:47;;;;;;;;;;;;;;;4.68;100.00;100117.75;4909396;29;19915;-83
2021/04/24 06:48:12;;;;;;;;;;;;;;;5.59;96.76;100116.75;4912890;29;19914;-83
2021/04/24 06:50:38;;;;;;;;;;;;;;;5.87;95.46;100120.31;4918507;29;19997;-84
2021/04/24 06:53:03;;;;;;;;;;;;;;;5.14;100.00;100107.94;4909194;28;19914;-84
2021/04/24 06:55:29;;;;;;;;;;;;;;;5.93;96.13;100112.69;4908417;29;19921;-84
2021/04/24 06:57:54;;;;;;;;;;;;;;;5.72;95.89;100113.41;4909976;29;19925;-84
2021/04/24 07:00:21;;;;;;;;;;;;;;;5.50;96.70;100106.50;4924090;29;19914;-84
2021/04/24 07:02:46;;;;;;;;;;;;;;;5.94;96.15;100123.75;4949058;28;19925;-83
2021/04/24 07:05:12;;;;;;;;;;;;;;;6.00;95.44;100113.59;4906343;29;19919;-84
2021/04/24 07:07:38;;;;;;;;;;;;;;;5.92;95.17;100116.06;4921465;29;19918;-84
2021/04/24 07:10:05;;;;;;;;;;;;;;;6.40;92.87;100118.84;4916542;28;20017;-85
2021/04/24 07:12:30;;;;;;;;;;;;;;;5.54;95.17;100109.06;4917980;29;19915;-84
2021/04/24 07:14:55;;;;;;;;;;;;;;;5.79;97.67;100120.28;4912132;28;19938;-84
2021/04/24 07:17:20;;;;;;;;;;;;;;;6.36;94.67;100119.69;4916484;29;19934;-85
2021/04/24 07:19:46;;;;;;;;;;;;;;;6.27;95.82;100118.81;4917661;28;19922;-84
2021/04/24 07:22:11;;;;;;;;;;;;;;;6.15;94.15;100113.66;4922840;29;19919;-85
2021/04/24 07:24:37;;;;;;;;;;;;;;;6.05;94.23;100112.75;4918012;28;20622;-85
2021/04/24 07:27:03;;;;;;;;;;;;;;;6.62;93.15;100107.81;4921643;29;20376;-84
2021/04/24 07:29:28;;;;;;;;;;;;;;;6.65;91.84;100102.69;4906228;29;19919;-85
2021/04/24 07:31:54;;;;;;;;;;;;;;;7.00;92.32;100104.47;4917759;29;19921;-85
2021/04/24 07:34:19;;;;;;;;;;;;;;;7.37;91.50;100091.63;4918136;29;20612;-85
2021/04/24 07:36:45;;;;;;;;;;;;;;;7.12;90.38;100101.88;4919832;29;20415;-84
2021/04/24 07:39:13;;;;;;;;;;;;;;;7.88;87.85;100102.59;4908420;28;19926;-84
2021/04/24 07:41:38;;;;;;;;;;;;;;;8.57;87.01;100097.16;4905627;28;19927;-83
2021/04/24 07:44:04;;;;;;;;;;;;;;;8.59;84.73;100104.88;4921469;29;19938;-84
2021/04/24 07:46:29;;;;;;;;;;;;;;;8.61;85.18;100110.00;4927023;28;19918;-84
2021/04/24 07:48:54;;;;;;;;;;;;;;;7.87;83.00;100107.75;4929228;29;19918;-84
2021/04/24 07:51:20;;;;;;;;;;;;;;;8.32;85.51;100108.41;4932083;29;19915;-85
2021/04/24 07:53:47;;;;;;;;;;;;;;;8.59;82.92;100104.88;4926264;29;20017;-86
2021/04/24 07:56:13;;;;;;;;;;;;;;;7.95;84.03;100100.88;4923531;28;19919;-86
2021/04/24 07:58:42;;;;;;;;;;;;;;;8.45;84.24;100098.97;4916950;29;19969;-87
2021/04/24 08:01:08;;;;;;;;;;;;;;;9.75;76.92;100091.88;4915883;28;20956;-85
2021/04/24 08:03:33;;;;;;;;;;;;;;;8.97;79.50;100094.31;4931856;29;19919;-85
2021/04/24 08:05:58;;;;;;;;;;;;;;;9.49;78.26;100097.28;4933173;28;19922;-85
2021/04/24 08:08:24;;;;;;;;;;;;;;;9.22;76.14;100096.69;4914048;28;19941;-85
2021/04/24 08:10:49;;;;;;;;;;;;;;;8.90;79.87;100089.25;4912587;29;19923;-86
2021/04/24 08:13:15;;;;;;;;;;;;;;;9.87;73.46;100096.88;4913174;28;19926;-86
2021/04/24 08:15:40;;;;;;;;;;;;;;;9.69;76.85;100097.09;4913083;29;19926;-86
2021/04/24 08:18:06;;;;;;;;;;;;;;;9.41;81.28;100095.66;4917262;28;19922;-85
2021/04/24 08:20:31;;;;;;;;;;;;;;;10.27;74.07;100088.69;4923724;29;19926;-83
2021/04/24 08:22:57;;;;;;;;;;;;;;;9.17;77.60;100096.75;4902347;29;19918;-83
2021/04/24 08:25:22;;;;;;;;;;;;;;;9.36;76.63;100096.56;4914215;29;20380;-82
2021/04/24 08:27:48;;;;;;;;;;;;;;;9.63;71.46;100096.28;4906492;28;19918;-84
2021/04/24 08:30:14;;;;;;;;;;;;;;;10.59;67.31;100084.84;4921042;29;20616;-83
2021/04/24 08:32:40;;;;;;;;;;;;;;;11.07;65.65;100096.09;4920850;28;19934;-85
2021/04/24 08:35:06;;;;;;;;;;;;;;;9.77;66.26;100103.84;4915900;29;19919;-83
2021/04/24 08:37:31;;;;;;;;;;;;;;;9.26;72.29;100097.50;4904517;28;19957;-85
2021/04/24 08:39:57;;;;;;;;;;;;;;;9.40;64.48;100100.81;4918504;29;19923;-84
2021/04/24 08:42:22;;;;;;;;;;;;;;;9.82;64.64;100099.50;4923826;29;19922;-84
2021/04/24 08:44:52;;;;;;;;;;;;;;;10.49;60.69;100097.00;4938650;28;19919;-84
2021/04/24 08:47:21;;;;;;;;;;;;;;;11.10;67.26;100095.19;4929595;29;19997;-85
2021/04/24 08:49:47;;;;;;;;;;;;;;;9.45;60.53;100099.06;4909982;29;20366;-85
2021/04/24 08:52:13;;;;;;;;;;;;;;;10.10;59.57;100095.75;4929518;28;19930;-85
2021/04/24 08:54:42;;;;;;;;;;;;;;;12.46;57.60;100089.16;4927341;29;19919;-85
2021/04/24 08:57:09;;;;;;;;;;;;;;;12.52;55.07;100086.44;4918952;28;19929;-85
2021/04/24 08:59:34;;;;;;;;;;;;;;;11.54;59.87;100084.97;4920203;29;19990;-85
2021/04/24 09:02:00;;;;;;;;;;;;;;;12.75;55.22;100074.72;4907351;29;19919;-86
2021/04/24 09:04:25;;;;;;;;;;;;;;;12.80;60.47;100069.44;4912053;29;20612;-85
2021/04/24 09:06:51;;;;;;;;;;;;;;;13.23;55.95;100061.47;4922519;29;19925;-85
2021/04/24 09:09:16;;;;;;;;;;;;;;;12.55;54.03;100072.59;4913522;29;19923;-86
2021/04/24 09:11:45;;;;;;;;;;;;;;;10.51;60.92;100087.50;4925857;29;19914;-85
2021/04/24 09:14:12;;;;;;;;;;;;;;;10.17;63.59;100087.06;4909512;29;19915;-85
2021/04/24 09:16:38;;;;;;;;;;;;;;;9.06;64.43;100085.69;4905574;29;19919;-86
2021/04/24 09:19:22;;;;;;;;;;;;;;;8.86;65.71;100088.41;4931220;29;20748;-86
2021/04/24 09:21:48;;;;;;;;;;;;;;;9.32;64.37;100087.16;4923482;29;19995;-84
2021/04/24 09:24:32;;;;;;;;;;;;;;;9.28;65.53;100085.50;4924578;28;19980;-85
2021/04/24 09:26:57;;;;;;;;;;;;;;;9.44;66.68;100089.63;4927328;29;19918;-85
2021/04/24 09:29:27;;;;;;;;;;;;;;;10.07;72.69;100080.34;4917074;28;20589;-85
2021/04/24 09:31:52;;;;;;;;;;;;;;;11.55;64.67;100072.06;4910220;29;19974;-86
2021/04/24 09:34:20;;;;;;;;;;;;;;;10.28;57.90;100080.06;4906626;29;19985;-85
2021/04/24 09:36:45;;;;;;;;;;;;;;;10.18;61.38;100075.94;4922914;29;20016;-87
2021/04/24 09:39:15;;;;;;;;;;;;;;;11.13;57.28;100064.22;4933020;28;20001;-86
2021/04/24 09:41:41;;;;;;;;;;;;;;;11.13;59.48;100069.38;4921132;28;19966;-86
2021/04/24 09:44:08;;;;;;;;;;;;;;;11.73;56.20;100061.38;4914147;29;19919;-87
2021/04/24 09:46:39;;;;;;;;;;;;;;;11.42;54.86;100062.84;4930751;28;19939;-86
2021/04/24 09:49:08;;;;;;;;;;;;;;;12.32;59.80;100070.53;4918411;29;19911;-86
2021/04/24 09:51:38;;;;;;;;;;;;;;;13.10;61.14;100045.41;4923387;29;19915;-84
2021/04/24 09:54:04;;;;;;;;;;;;;;;11.84;54.35;100057.75;4917346;29;19961;-85
2021/04/24 09:56:29;;;;;;;;;;;;;;;13.24;51.46;100057.13;4927726;29;20383;-83
2021/04/24 09:59:04;;;;;;;;;;;;;;;13.17;57.83;100056.44;4911158;29;19923;-86
2021/04/24 10:01:33;;;;;;;;;;;;;;;13.31;55.75;100053.53;4926150;29;19919;-86
2021/04/24 10:03:59;;;;;;;;;;;;;;;12.07;59.76;100047.81;4913252;29;19921;-86
2021/04/24 10:06:44;;;;;;;;;;;;;;;10.16;59.49;100062.22;4935231;29;19930;-85
2021/04/24 10:11:56;;;;;;;;;;;;;;;9.77;65.38;100054.13;4955399;28;19969;-85
2021/04/24 10:14:32;;;;;;;;;;;;;;;10.87;57.73;100057.75;4944877;29;19919;-85
2021/04/24 10:16:58;;;;;;;;;;;;;;;11.34;61.43;100044.09;4945366;29;19921;-86
2021/04/24 10:19:25;;;;;;;;;;;;;;;9.67;56.56;100060.22;4927927;28;20065;-86
2021/04/24 10:21:50;;;;;;;;;;;;;;;11.67;55.23;100050.31;4922157;28;19922;-86
2021/04/24 10:24:15;;;;;;;;;;;;;;;12.77;52.64;100044.50;4930639;28;19926;-88
2021/04/24 10:26:42;;;;;;;;;;;;;;;12.63;52.11;100038.81;4931274;29;19961;-85
2021/04/24 10:29:07;;;;;;;;;;;;;;;13.65;52.41;100044.84;4933196;29;19957;-84
2021/04/24 10:31:34;;;;;;;;;;;;;;;13.19;54.14;100044.31;4930465;28;20682;-87
2021/04/24 10:33:59;;;;;;;;;;;;;;;13.02;51.89;100046.47;4914519;28;19918;-84
2021/04/24 10:36:25;;;;;;;;;;;;;;;12.64;54.39;100040.53;4914214;29;19915;-84
2021/04/24 10:38:51;;;;;;;;;;;;;;;12.14;48.36;100044.22;4903637;28;19930;-84
2021/04/24 10:41:25;;;;;;;;;;;;;;;12.27;54.90;100037.06;4904730;29;19938;-84
2021/04/24 10:43:57;;;;;;;;;;;;;;;12.74;49.75;100037.66;4921078;29;19923;-84
2021/04/24 10:46:23;;;;;;;;;;;;;;;13.69;49.16;100039.56;4924762;29;19943;-84
2021/04/24 10:48:48;;;;;;;;;;;;;;;16.03;45.79;100029.31;4922147;29;19954;-84
2021/04/24 10:51:14;;;;;;;;;;;;;;;15.39;42.52;100030.72;4926500;29;19919;-84
2021/04/24 10:53:39;;;;;;;;;;;;;;;14.21;45.22;100027.66;4916721;28;19922;-85
2021/04/24 10:56:07;;;;;;;;;;;;;;;15.82;52.12;100021.41;4908074;29;19923;-85
2021/04/24 10:58:32;;;;;;;;;;;;;;;14.60;47.81;100023.91;4911525;29;19915;-84
2021/04/24 11:00:59;;;;;;;;;;;;;;;13.50;47.33;100028.88;4917914;29;19929;-84
2021/04/24 11:03:45;;;;;;;;;;;;;;;13.91;48.12;100024.25;4929067;29;20571;-85
2021/04/24 11:06:12;;;;;;;;;;;;;;;13.53;46.09;100026.19;4944282;28;19914;-85
2021/04/24 11:08:37;;;;;;;;;;;;;;;14.03;47.02;100023.03;4926226;29;19918;-85
2021/04/24 11:11:07;;;;;;;;;;;;;;;16.38;46.88;100016.72;4917684;28;20551;-84
2021/04/24 11:13:33;;;;;;;;;;;;;;;16.56;56.18;100004.72;4927934;29;20585;-85
2021/04/24 11:16:01;;;;;;;;;;;;;;;16.43;52.55;100009.56;4918860;28;19919;-85
2021/04/24 11:18:27;;;;;;;;;;;;;;;13.25;54.36;100018.31;4917347;29;20381;-85
2021/04/24 11:20:52;;;;;;;;;;;;;;;12.49;51.92;100010.72;4922782;28;19993;-84
2021/04/24 11:23:30;;;;;;;;;;;;;;;12.06;52.72;100016.84;4927566;29;20380;-85
2021/04/24 11:25:55;;;;;;;;;;;;;;;11.78;52.50;100016.56;4940612;28;19973;-84
2021/04/24 11:28:22;;;;;;;;;;;;;;;13.15;48.22;100014.25;4930174;29;19919;-84
2021/04/24 11:30:47;;;;;;;;;;;;;;;14.39;53.91;99999.47;4909862;29;19922;-85
2021/04/24 11:33:28;;;;;;;;;;;;;;;14.50;43.53;100006.91;4944674;28;19933;-85
2021/04/24 11:36:12;;;;;;;;;;;;;;;15.14;45.54;100003.94;4927182;29;19922;-85
2021/04/24 11:39:04;;;;;;;;;;;;;;;14.48;46.29;100009.53;4942615;28;19950;-85
2021/04/24 11:41:29;;;;;;;;;;;;;;;14.28;42.80;99998.97;4930778;29;19918;-84
2021/04/24 11:43:58;;;;;;;;;;;;;;;14.69;49.76;99991.63;4942521;28;20020;-85
2021/04/24 11:46:39;;;;;;;;;;;;;;;14.15;47.39;99998.50;4920655;29;20010;-84
2021/04/24 11:49:17;;;;;;;;;;;;;;;13.62;48.61;99988.84;4934814;29;19922;-85
2021/04/24 11:51:47;;;;;;;;;;;;;;;14.85;48.14;99985.06;4914004;28;19915;-85
2021/04/24 11:54:21;;;;;;;;;;;;;;;14.63;46.83;99980.56;4911470;29;19919;-85
2021/04/24 11:56:46;;;;;;;;;;;;;;;14.42;45.49;99978.66;4921364;28;19961;-88
2021/04/24 11:59:12;;;;;;;;;;;;;;;15.64;46.20;99973.56;4923777;28;19926;-86
2021/04/24 12:01:37;;;;;;;;;;;;;;;16.69;46.96;99974.69;4911969;28;21041;-85
2021/04/24 12:04:10;;;;;;;;;;;;;;;16.51;40.62;99984.09;4906683;29;20013;-86
2021/04/24 12:06:37;;;;;;;;;;;;;;;15.53;55.40;99975.75;4912890;29;20495;-86
2021/04/24 12:09:04;;;;;;;;;;;;;;;18.07;45.99;99975.63;4913556;28;19981;-87
2021/04/24 12:11:30;;;;;;;;;;;;;;;15.80;44.24;99984.25;4908706;29;20549;-86
2021/04/24 12:13:55;;;;;;;;;;;;;;;17.09;50.22;99984.31;4909055;29;20013;-86
2021/04/24 12:16:21;;;;;;;;;;;;;;;15.40;42.15;99979.69;4914491;29;19918;-87
2021/04/24 12:18:49;;;;;;;;;;;;;;;17.63;40.05;99973.25;4916764;28;20013;-87
2021/04/24 12:21:23;;;;;;;;;;;;;;;16.33;37.44;99982.25;4925657;29;19914;-87
2021/04/24 12:23:49;;;;;;;;;;;;;;;16.04;41.46;99976.47;4930852;28;20006;-87
2021/04/24 12:26:15;;;;;;;;;;;;;;;14.86;43.28;99971.19;4906166;29;20045;-86
2021/04/24 12:28:43;;;;;;;;;;;;;;;13.17;49.02;99977.09;4908499;28;19925;-88
2021/04/24 12:31:09;;;;;;;;;;;;;;;13.98;50.74;99970.50;4919669;29;19981;-86
2021/04/24 12:33:34;;;;;;;;;;;;;;;14.68;45.57;99964.84;4915371;28;19983;-87
2021/04/24 12:36:01;;;;;;;;;;;;;;;14.43;45.77;99962.19;4919763;29;20017;-86
2021/04/24 12:38:31;;;;;;;;;;;;;;;15.45;45.64;99965.63;4922946;28;19933;-86
2021/04/24 12:40:58;;;;;;;;;;;;;;;17.00;40.21;99957.84;4919410;29;19946;-86
2021/04/24 12:43:29;;;;;;;;;;;;;;;16.62;41.95;99953.28;4918201;28;20630;-86
2021/04/24 12:45:55;;;;;;;;;;;;;;;14.84;46.11;99954.81;4919519;29;20923;-86